createdAt,value
2017-07-23T00:01:27.833Z,20.00
2017-07-23T00:03:54.833Z,19.70
2017-07-23T00:06:21.125Z,19.60
2017-07-23T00:08:47.388Z,19.60
2017-07-23T00:11:13.669Z,19.60
2017-07-23T00:13:40.665Z,19.70
2017-07-23T00:16:06.936Z,19.60
2017-07-23T00:18:33.997Z,19.80
2017-07-23T00:21:00.257Z,19.80
2017-07-23T00:23:26.529Z,19.60
2017-07-23T00:25:52.813Z,19.10
2017-07-23T00:28:19.069Z,18.50
2017-07-23T00:30:45.353Z,17.90
2017-07-23T00:33:11.609Z,17.30
2017-07-23T00:35:37.870Z,16.90
2017-07-23T00:38:04.120Z,16.60
2017-07-23T00:40:30.381Z,16.40
2017-07-23T00:42:56.664Z,16.30
2017-07-23T00:45:23.685Z,16.20
2017-07-23T00:47:49.941Z,16.20
2017-07-23T00:50:16.214Z,16.10
2017-07-23T00:52:42.474Z,16.10
2017-07-23T00:55:08.750Z,16.10
2017-07-23T00:57:35.057Z,16.00
2017-07-23T01:00:02.079Z,16.00
2017-07-23T01:02:28.336Z,15.90
2017-07-23T01:04:55.328Z,16.00
2017-07-23T01:07:22.641Z,15.90
2017-07-23T01:09:48.909Z,15.90
2017-07-23T01:12:15.165Z,15.90
2017-07-23T01:14:41.429Z,15.90
2017-07-23T01:17:07.692Z,15.90
2017-07-23T01:19:33.984Z,15.90
2017-07-23T01:22:00.250Z,15.90
2017-07-23T01:24:26.496Z,15.90
2017-07-23T01:26:52.757Z,15.90
2017-07-23T01:29:19.752Z,15.90
2017-07-23T01:31:46.033Z,15.90
2017-07-23T01:36:46.085Z,15.90
2017-07-23T01:39:12.369Z,16.00
2017-07-23T01:41:38.636Z,16.20
2017-07-23T01:44:04.922Z,16.20
2017-07-23T01:46:31.198Z,16.10
2017-07-23T01:48:57.496Z,16.30
2017-07-23T01:51:23.765Z,16.30
2017-07-23T01:53:50.040Z,16.30
2017-07-23T01:56:16.316Z,16.20
2017-07-23T01:58:42.597Z,16.20
2017-07-23T02:01:08.889Z,16.10
2017-07-23T02:03:35.213Z,16.10
2017-07-23T02:06:01.473Z,16.10
2017-07-23T02:08:27.738Z,16.20
2017-07-23T02:10:53.981Z,16.30
2017-07-23T02:13:20.260Z,16.30
2017-07-23T02:15:46.537Z,16.40
2017-07-23T02:18:12.799Z,16.50
2017-07-23T02:20:39.068Z,16.50
2017-07-23T02:23:05.312Z,16.40
2017-07-23T02:25:32.342Z,16.40
2017-07-23T02:27:58.597Z,16.40
2017-07-23T02:30:24.879Z,16.40
2017-07-23T02:32:51.161Z,16.30
2017-07-23T02:35:17.412Z,16.20
2017-07-23T02:37:43.685Z,16.20
2017-07-23T02:40:09.936Z,16.20
2017-07-23T02:42:36.929Z,16.10
2017-07-23T02:45:03.193Z,16.00
2017-07-23T02:47:29.442Z,16.00
2017-07-23T02:49:55.727Z,16.00
2017-07-23T02:52:22.025Z,15.90
2017-07-23T02:54:48.474Z,15.90
2017-07-23T02:57:14.729Z,15.80
2017-07-23T02:59:41.005Z,15.80
2017-07-23T03:02:07.275Z,15.90
2017-07-23T03:04:33.876Z,15.80
2017-07-23T03:07:00.164Z,15.80
2017-07-23T03:09:27.159Z,15.80
2017-07-23T03:11:53.414Z,15.70
2017-07-23T03:14:19.685Z,15.70
2017-07-23T03:16:46.677Z,15.80
2017-07-23T03:19:12.930Z,15.80
2017-07-23T03:21:39.177Z,15.70
2017-07-23T03:24:05.453Z,15.70
2017-07-23T03:26:31.730Z,15.80
2017-07-23T03:28:57.980Z,15.80
2017-07-23T03:31:24.241Z,15.60
2017-07-23T03:33:50.495Z,15.80
2017-07-23T03:36:16.769Z,15.60
2017-07-23T03:38:43.034Z,15.50
2017-07-23T03:41:09.310Z,15.50
2017-07-23T03:43:36.325Z,15.60
2017-07-23T03:46:02.582Z,15.60
2017-07-23T03:48:29.857Z,15.60
2017-07-23T03:50:57.161Z,15.50
2017-07-23T03:53:23.430Z,15.60
2017-07-23T03:55:49.713Z,15.60
2017-07-23T03:58:15.984Z,15.70
2017-07-23T04:00:42.267Z,15.80
2017-07-23T04:03:08.533Z,15.80
2017-07-23T04:05:35.581Z,15.70
2017-07-23T04:08:02.605Z,15.70
2017-07-23T04:10:28.865Z,15.70
2017-07-23T04:12:55.134Z,15.60
2017-07-23T04:15:21.389Z,15.40
2017-07-23T04:17:47.649Z,15.50
2017-07-23T04:20:13.933Z,15.60
2017-07-23T04:22:40.196Z,15.50
2017-07-23T04:25:06.468Z,15.60
2017-07-23T04:27:32.726Z,15.70
2017-07-23T04:29:58.990Z,15.60
2017-07-23T04:32:26.010Z,15.50
2017-07-23T04:34:52.262Z,15.50
2017-07-23T04:37:18.523Z,15.60
2017-07-23T04:39:44.781Z,15.50
2017-07-23T04:42:11.040Z,15.60
2017-07-23T04:44:38.068Z,15.60
2017-07-23T04:47:04.334Z,15.60
2017-07-23T04:49:30.633Z,15.70
2017-07-23T04:51:56.893Z,15.70
2017-07-23T04:54:23.165Z,15.90
2017-07-23T04:56:49.437Z,15.90
2017-07-23T04:59:16.452Z,16.10
2017-07-23T05:01:42.730Z,16.10
2017-07-23T05:04:08.991Z,16.10
2017-07-23T05:06:35.269Z,16.20
2017-07-23T05:09:02.345Z,16.50
2017-07-23T05:11:28.598Z,16.40
2017-07-23T05:13:54.853Z,16.50
2017-07-23T05:16:21.113Z,16.60
2017-07-23T05:18:47.377Z,16.70
2017-07-23T05:21:13.656Z,16.80
2017-07-23T05:23:40.653Z,16.80
2017-07-23T05:26:06.901Z,16.80
2017-07-23T05:28:33.177Z,16.70
2017-07-23T05:30:59.428Z,16.70
2017-07-23T05:33:25.705Z,16.60
2017-07-23T05:35:51.964Z,16.50
2017-07-23T05:38:18.220Z,16.60
2017-07-23T05:40:44.493Z,16.70
2017-07-23T05:43:10.768Z,16.80
2017-07-23T05:45:37.041Z,17.10
2017-07-23T05:48:03.297Z,17.20
2017-07-23T05:50:29.553Z,17.30
2017-07-23T05:52:55.834Z,17.20
2017-07-23T05:55:22.094Z,17.20
2017-07-23T05:57:48.368Z,17.10
2017-07-23T06:00:14.620Z,17.20
2017-07-23T06:02:40.881Z,17.20
2017-07-23T06:05:07.137Z,17.40
2017-07-23T06:07:33.402Z,17.30
2017-07-23T06:09:59.670Z,17.40
2017-07-23T06:12:25.920Z,17.30
2017-07-23T06:14:52.173Z,17.30
2017-07-23T06:17:18.425Z,17.30
2017-07-23T06:19:45.420Z,17.60
2017-07-23T06:22:11.726Z,17.60
2017-07-23T06:24:37.982Z,17.80
2017-07-23T06:27:04.233Z,18.10
2017-07-23T06:29:30.488Z,18.30
2017-07-23T06:31:57.477Z,19.10
2017-07-23T06:34:23.740Z,19.10
2017-07-23T06:36:49.997Z,19.40
2017-07-23T06:39:16.989Z,19.80
2017-07-23T06:41:43.241Z,19.80
2017-07-23T06:44:09.490Z,19.70
2017-07-23T06:46:36.849Z,19.40
2017-07-23T06:49:03.842Z,19.10
2017-07-23T06:51:30.097Z,19.10
2017-07-23T06:53:56.353Z,18.80
2017-07-23T06:56:22.610Z,18.70
2017-07-23T06:58:48.889Z,18.70
2017-07-23T07:01:15.145Z,18.70
2017-07-23T07:03:41.405Z,18.70
2017-07-23T07:06:07.661Z,18.70
2017-07-23T07:08:33.917Z,18.70
2017-07-23T07:11:00.935Z,19.00
2017-07-23T07:13:27.318Z,19.00
2017-07-23T07:15:53.568Z,19.10
2017-07-23T07:18:19.809Z,19.20
2017-07-23T07:20:46.052Z,19.40
2017-07-23T07:23:12.325Z,19.60
2017-07-23T07:25:38.590Z,19.70
2017-07-23T07:28:04.843Z,19.70
2017-07-23T07:30:31.092Z,19.60
2017-07-23T07:32:59.104Z,19.40
2017-07-23T07:35:25.393Z,19.40
2017-07-23T07:37:52.385Z,19.20
2017-07-23T07:40:18.737Z,19.20
2017-07-23T07:42:44.993Z,19.20
2017-07-23T07:45:11.990Z,19.40
2017-07-23T07:47:38.269Z,19.30
2017-07-23T07:50:05.268Z,19.40
2017-07-23T07:52:32.549Z,19.30
2017-07-23T07:54:58.800Z,19.20
2017-07-23T07:57:25.049Z,19.00
2017-07-23T07:59:52.321Z,19.10
2017-07-23T08:02:18.581Z,19.10
2017-07-23T08:04:44.856Z,19.10
2017-07-23T08:07:11.106Z,19.10
2017-07-23T08:09:37.349Z,19.30
2017-07-23T08:12:04.662Z,19.40
2017-07-23T08:14:30.917Z,19.60
2017-07-23T08:16:57.173Z,19.80
2017-07-23T08:19:23.536Z,20.10
2017-07-23T08:21:50.529Z,20.50
2017-07-23T08:24:16.813Z,20.40
2017-07-23T08:26:43.809Z,20.70
2017-07-23T08:29:10.066Z,20.70
2017-07-23T08:31:36.316Z,20.60
2017-07-23T08:34:03.297Z,20.60
2017-07-23T08:36:29.568Z,20.60
2017-07-23T08:38:55.824Z,20.70
2017-07-23T08:41:22.084Z,20.60
2017-07-23T08:43:48.333Z,20.70
2017-07-23T08:46:14.586Z,20.70
2017-07-23T08:48:40.866Z,20.80
2017-07-23T08:51:07.121Z,20.90
2017-07-23T08:53:33.368Z,20.80
2017-07-23T08:55:59.618Z,20.80
2017-07-23T08:58:25.860Z,21.00
2017-07-23T09:00:52.153Z,21.00
2017-07-23T09:03:18.400Z,21.00
2017-07-23T09:05:45.394Z,21.10
2017-07-23T09:08:11.637Z,21.00
2017-07-23T09:10:37.897Z,21.20
2017-07-23T09:13:04.917Z,21.20
2017-07-23T09:15:31.168Z,21.20
2017-07-23T09:18:04.105Z,21.00
2017-07-23T09:20:30.434Z,21.00
2017-07-23T09:22:56.689Z,21.00
2017-07-23T09:25:23.980Z,20.90
2017-07-23T09:27:51.250Z,21.00
2017-07-23T09:30:17.501Z,20.80
2017-07-23T09:32:43.762Z,20.80
2017-07-23T09:35:10.018Z,20.70
2017-07-23T09:37:36.289Z,20.70
2017-07-23T09:40:02.549Z,20.80
2017-07-23T09:42:28.810Z,21.00
2017-07-23T09:44:55.069Z,21.00
2017-07-23T09:47:21.305Z,21.20
2017-07-23T09:49:48.569Z,21.40
2017-07-23T09:52:14.852Z,21.40
2017-07-23T09:54:41.102Z,21.50
2017-07-23T09:57:07.384Z,21.90
2017-07-23T09:59:34.393Z,22.20
2017-07-23T10:02:00.647Z,22.20
2017-07-23T10:04:26.889Z,22.10
2017-07-23T10:06:53.901Z,22.80
2017-07-23T10:09:20.154Z,22.80
2017-07-23T10:11:47.140Z,23.10
2017-07-23T10:14:13.417Z,23.00
2017-07-23T10:16:39.669Z,23.10
2017-07-23T10:19:06.658Z,23.50
2017-07-23T10:21:32.940Z,23.40
2017-07-23T10:24:00.332Z,23.90
2017-07-23T10:26:26.605Z,23.80
2017-07-23T10:28:52.875Z,23.90
2017-07-23T10:31:19.157Z,23.70
2017-07-23T10:33:45.455Z,23.40
2017-07-23T10:36:14.078Z,23.00
2017-07-23T10:38:43.141Z,22.50
2017-07-23T10:41:09.393Z,22.50
2017-07-23T10:43:35.653Z,22.70
2017-07-23T10:46:02.684Z,22.30
2017-07-23T10:48:29.685Z,22.20
2017-07-23T10:50:55.937Z,22.10
2017-07-23T10:53:22.182Z,22.00
2017-07-23T10:55:48.439Z,22.10
2017-07-23T10:58:14.705Z,22.20
2017-07-23T11:00:40.961Z,22.00
2017-07-23T11:03:08.229Z,21.90
2017-07-23T11:05:35.247Z,21.40
2017-07-23T11:08:01.507Z,21.30
2017-07-23T11:10:29.741Z,21.20
2017-07-23T11:12:55.988Z,21.20
2017-07-23T11:15:22.245Z,21.30
2017-07-23T11:17:49.264Z,21.70
2017-07-23T11:20:15.509Z,21.60
2017-07-23T11:22:42.524Z,21.90
2017-07-23T11:25:08.777Z,21.90
2017-07-23T11:27:35.798Z,22.40
2017-07-23T11:30:02.517Z,22.30
2017-07-23T11:32:28.774Z,22.40
2017-07-23T11:34:55.037Z,22.60
2017-07-23T11:37:21.332Z,22.80
2017-07-23T11:39:47.587Z,22.90
2017-07-23T11:42:14.580Z,22.50
2017-07-23T11:44:40.830Z,22.50
2017-07-23T11:47:08.110Z,22.70
2017-07-23T11:49:35.113Z,23.10
2017-07-23T11:52:01.386Z,23.00
2017-07-23T11:54:28.393Z,22.80
2017-07-23T11:56:55.664Z,22.80
2017-07-23T11:59:21.958Z,22.80
2017-07-23T12:01:48.278Z,22.90
2017-07-23T12:04:14.529Z,22.70
2017-07-23T12:06:40.789Z,22.80
2017-07-23T12:09:07.967Z,22.60
2017-07-23T12:11:35.161Z,22.50
2017-07-23T12:14:02.473Z,22.70
2017-07-23T12:16:28.725Z,22.90
2017-07-23T12:18:55.061Z,23.00
2017-07-23T12:21:21.314Z,22.90
2017-07-23T12:23:48.489Z,22.80
2017-07-23T12:26:15.489Z,23.00
2017-07-23T12:28:41.761Z,22.90
2017-07-23T12:31:08.765Z,23.30
2017-07-23T12:33:35.026Z,23.30
2017-07-23T12:36:02.059Z,23.20
2017-07-23T12:38:28.329Z,23.20
2017-07-23T12:40:54.586Z,23.10
2017-07-23T12:43:20.853Z,23.40
2017-07-23T12:45:47.104Z,23.70
2017-07-23T12:48:14.158Z,23.60
2017-07-23T12:50:40.426Z,23.50
2017-07-23T12:53:06.685Z,23.80
2017-07-23T12:55:32.945Z,24.00
2017-07-23T12:57:59.205Z,24.00
2017-07-23T13:00:26.488Z,23.90
2017-07-23T13:02:52.733Z,23.70
2017-07-23T13:05:19.730Z,23.60
2017-07-23T13:07:45.970Z,23.60
2017-07-23T13:10:12.220Z,23.40
2017-07-23T13:12:38.649Z,23.40
2017-07-23T13:15:05.925Z,23.40
2017-07-23T13:17:32.929Z,23.30
2017-07-23T13:19:59.229Z,23.30
2017-07-23T13:22:25.498Z,23.30
2017-07-23T13:24:51.761Z,23.00
2017-07-23T13:27:18.777Z,22.80
2017-07-23T13:29:45.042Z,22.80
2017-07-23T13:32:11.298Z,22.70
2017-07-23T13:34:37.552Z,22.80
2017-07-23T13:37:03.834Z,22.70
2017-07-23T13:39:30.100Z,22.80
2017-07-23T13:41:56.349Z,23.00
2017-07-23T13:44:22.609Z,22.70
2017-07-23T13:46:49.606Z,22.60
2017-07-23T13:49:15.890Z,22.50
2017-07-23T13:51:42.146Z,22.40
2017-07-23T13:54:08.397Z,22.40
2017-07-23T13:56:34.657Z,22.40
2017-07-23T13:59:01.658Z,22.30
2017-07-23T14:01:27.937Z,22.30
2017-07-23T14:03:54.195Z,22.20
2017-07-23T14:06:20.446Z,22.10
2017-07-23T14:08:46.697Z,22.20
2017-07-23T14:11:12.945Z,22.10
2017-07-23T14:13:39.973Z,22.10
2017-07-23T14:16:06.226Z,22.10
2017-07-23T14:18:32.480Z,22.00
2017-07-23T14:20:58.744Z,22.00
2017-07-23T14:23:24.993Z,22.00
2017-07-23T14:25:51.253Z,21.90
2017-07-23T14:28:17.506Z,21.70
2017-07-23T14:30:43.765Z,21.60
2017-07-23T14:33:10.046Z,21.50
2017-07-23T14:35:36.302Z,21.30
2017-07-23T14:38:02.577Z,21.20
2017-07-23T14:40:28.833Z,20.90
2017-07-23T14:42:55.086Z,20.60
2017-07-23T14:45:21.332Z,20.50
2017-07-23T14:47:47.581Z,20.60
2017-07-23T14:50:13.852Z,20.70
2017-07-23T14:52:40.107Z,20.60
2017-07-23T14:55:06.361Z,20.50
2017-07-23T14:57:32.625Z,20.40
2017-07-23T14:59:58.877Z,20.40
2017-07-23T15:02:25.164Z,20.30
2017-07-23T15:04:52.181Z,20.20
2017-07-23T15:07:18.433Z,20.20
2017-07-23T15:09:45.441Z,20.50
2017-07-23T15:12:11.708Z,20.40
2017-07-23T15:14:38.014Z,20.50
2017-07-23T15:17:04.281Z,20.50
2017-07-23T15:19:31.269Z,20.50
2017-07-23T15:21:57.529Z,20.50
2017-07-23T15:24:23.801Z,20.70
2017-07-23T15:26:50.085Z,20.60
2017-07-23T15:29:16.342Z,20.60
2017-07-23T15:31:43.341Z,20.60
2017-07-23T15:34:09.626Z,20.60
2017-07-23T15:36:35.893Z,20.60
2017-07-23T15:39:02.205Z,20.50
2017-07-23T15:41:28.452Z,20.70
2017-07-23T15:43:54.699Z,20.60
2017-07-23T15:46:20.954Z,20.70
2017-07-23T15:48:47.949Z,20.90
2017-07-23T15:51:15.258Z,20.80
2017-07-23T15:53:41.508Z,20.90
2017-07-23T15:56:07.752Z,21.00
2017-07-23T15:58:34.013Z,21.10
2017-07-23T16:01:00.269Z,21.20
2017-07-23T16:03:27.409Z,21.10
2017-07-23T16:05:53.662Z,20.90
2017-07-23T16:08:19.937Z,20.50
2017-07-23T16:10:46.194Z,20.50
2017-07-23T16:13:13.192Z,20.20
2017-07-23T16:15:39.456Z,20.20
2017-07-23T16:18:06.762Z,20.00
2017-07-23T16:20:33.024Z,20.10
2017-07-23T16:22:59.263Z,20.10
2017-07-23T16:25:26.272Z,20.10
2017-07-23T16:27:52.545Z,20.10
2017-07-23T16:30:18.795Z,20.00
2017-07-23T16:32:45.046Z,20.10
2017-07-23T16:35:11.313Z,20.00
2017-07-23T16:37:37.576Z,20.10
2017-07-23T16:40:04.597Z,20.40
2017-07-23T16:42:30.878Z,20.40
2017-07-23T16:44:57.133Z,20.30
2017-07-23T16:47:23.381Z,20.40
2017-07-23T16:49:49.660Z,20.50
2017-07-23T16:52:15.913Z,20.60
2017-07-23T16:54:42.173Z,20.60
2017-07-23T16:57:09.445Z,20.70
2017-07-23T16:59:36.430Z,20.90
2017-07-23T17:02:02.673Z,20.80
2017-07-23T17:04:28.957Z,20.80
2017-07-23T17:06:55.214Z,20.90
2017-07-23T17:09:21.476Z,20.80
2017-07-23T17:11:47.730Z,20.50
2017-07-23T17:14:14.745Z,20.30
2017-07-23T17:16:41.044Z,20.30
2017-07-23T17:19:08.336Z,20.20
2017-07-23T17:21:35.651Z,20.10
2017-07-23T17:24:01.913Z,20.10
2017-07-23T17:26:28.164Z,20.10
2017-07-23T17:28:54.436Z,20.10
2017-07-23T17:31:20.685Z,20.20
2017-07-23T17:33:46.953Z,20.20
2017-07-23T17:36:13.948Z,20.10
2017-07-23T17:38:40.214Z,20.10
2017-07-23T17:41:06.512Z,20.00
2017-07-23T17:43:32.772Z,19.90
2017-07-23T17:46:05.810Z,19.90
2017-07-23T17:48:32.074Z,19.90
2017-07-23T17:50:58.320Z,19.90
2017-07-23T17:53:25.321Z,20.00
2017-07-23T17:55:51.569Z,19.90
2017-07-23T17:58:17.829Z,20.00
2017-07-23T18:00:44.828Z,19.90
2017-07-23T18:03:11.112Z,19.80
2017-07-23T18:05:37.389Z,19.80
2017-07-23T18:08:03.640Z,19.70
2017-07-23T18:10:29.892Z,19.60
2017-07-23T18:12:56.900Z,19.30
2017-07-23T18:15:23.148Z,19.30
2017-07-23T18:17:49.441Z,19.20
2017-07-23T18:20:15.698Z,19.20
2017-07-23T18:22:41.956Z,19.10
2017-07-23T18:25:08.222Z,19.20
2017-07-23T18:27:34.481Z,19.20
2017-07-23T18:30:00.752Z,19.00
2017-07-23T18:32:27.031Z,19.00
2017-07-23T18:34:53.297Z,18.80
2017-07-23T18:37:20.293Z,18.80
2017-07-23T18:39:46.570Z,18.70
2017-07-23T18:42:13.616Z,18.60
2017-07-23T18:44:39.881Z,18.60
2017-07-23T18:47:06.134Z,18.70
2017-07-23T18:49:32.500Z,18.70
2017-07-23T18:51:59.495Z,18.70
2017-07-23T18:54:25.765Z,18.70
2017-07-23T18:56:52.304Z,18.60
2017-07-23T18:59:18.607Z,18.60
2017-07-23T19:01:44.883Z,18.40
2017-07-23T19:04:11.137Z,18.40
2017-07-23T19:06:37.400Z,18.40
2017-07-23T19:09:03.709Z,18.50
2017-07-23T19:11:29.970Z,18.40
2017-07-23T19:13:56.980Z,18.40
2017-07-23T19:16:23.237Z,18.30
2017-07-23T19:18:49.528Z,18.40
2017-07-23T19:21:15.772Z,18.30
2017-07-23T19:23:42.034Z,18.30
2017-07-23T19:26:08.320Z,18.10
2017-07-23T19:28:34.600Z,18.00
2017-07-23T19:31:01.650Z,18.10
2017-07-23T19:33:27.920Z,18.10
2017-07-23T19:35:54.255Z,18.30
2017-07-23T19:38:20.525Z,18.40
2017-07-23T19:40:46.783Z,18.50
2017-07-23T19:43:13.066Z,18.60
2017-07-23T19:45:39.309Z,18.70
2017-07-23T19:48:05.576Z,18.80
2017-07-23T19:50:31.829Z,18.80
2017-07-23T19:52:58.097Z,18.90
2017-07-23T19:55:25.394Z,18.90
2017-07-23T19:57:51.641Z,18.90
2017-07-23T20:00:17.898Z,18.90
2017-07-23T20:02:44.149Z,18.90
2017-07-23T20:05:11.173Z,18.80
2017-07-23T20:07:37.454Z,18.80
2017-07-23T20:10:03.717Z,18.60
2017-07-23T20:12:29.977Z,18.50
2017-07-23T20:14:56.966Z,18.40
2017-07-23T20:17:23.245Z,18.40
2017-07-23T20:19:50.269Z,18.40
2017-07-23T20:22:16.535Z,18.30
2017-07-23T20:24:43.542Z,18.30
2017-07-23T20:27:09.801Z,18.30
2017-07-23T20:29:36.805Z,18.30
2017-07-23T20:32:04.099Z,18.20
2017-07-23T20:34:31.096Z,18.30
2017-07-23T20:36:57.361Z,18.20
2017-07-23T20:39:23.617Z,18.30
2017-07-23T20:41:49.873Z,18.30
2017-07-23T20:44:16.163Z,18.20
2017-07-23T20:46:43.169Z,18.10
2017-07-23T20:49:09.421Z,18.10
2017-07-23T20:51:35.725Z,18.20
2017-07-23T20:54:01.985Z,18.20
2017-07-23T20:56:29.017Z,18.20
2017-07-23T20:58:55.282Z,18.10
2017-07-23T21:01:21.528Z,18.20
2017-07-23T21:03:47.784Z,18.10
2017-07-23T21:06:14.044Z,18.10
2017-07-23T21:08:40.325Z,18.00
2017-07-23T21:11:06.594Z,18.00
2017-07-23T21:13:33.890Z,18.00
2017-07-23T21:16:00.138Z,18.10
2017-07-23T21:18:26.389Z,18.10
2017-07-23T21:20:52.677Z,18.10
2017-07-23T21:23:18.942Z,18.00
2017-07-23T21:25:45.223Z,17.90
2017-07-23T21:28:11.504Z,17.80
2017-07-23T21:30:37.768Z,17.90
2017-07-23T21:33:04.043Z,17.90
2017-07-23T21:35:30.296Z,17.90
2017-07-23T21:37:56.546Z,18.00
2017-07-23T21:40:23.564Z,18.00
2017-07-23T21:42:49.812Z,18.00
2017-07-23T21:45:16.100Z,18.00
2017-07-23T21:47:42.369Z,18.00
2017-07-23T21:50:08.624Z,17.90
2017-07-23T21:52:34.895Z,17.90
2017-07-23T21:55:01.157Z,17.80
2017-07-23T21:57:28.168Z,17.80
2017-07-23T21:59:54.422Z,17.70
2017-07-23T22:02:20.685Z,17.80
2017-07-23T22:04:46.949Z,17.80
2017-07-23T22:07:13.241Z,17.80
2017-07-23T22:09:39.521Z,17.80
2017-07-23T22:12:05.784Z,17.70
2017-07-23T22:14:32.792Z,17.70
2017-07-23T22:16:59.051Z,17.70
2017-07-23T22:19:26.316Z,17.80
2017-07-23T22:21:52.617Z,17.80
2017-07-23T22:24:18.893Z,17.80
2017-07-23T22:26:45.160Z,17.80
2017-07-23T22:29:12.433Z,17.90
2017-07-23T22:31:38.697Z,17.90
2017-07-23T22:34:04.977Z,17.90
2017-07-23T22:36:31.268Z,18.00
2017-07-23T22:38:57.534Z,17.90
2017-07-23T22:41:23.792Z,18.00
2017-07-23T22:43:50.777Z,17.90
2017-07-23T22:46:17.061Z,17.90
2017-07-23T22:48:43.329Z,17.80
2017-07-23T22:51:09.597Z,17.90
2017-07-23T22:53:35.889Z,17.90
2017-07-23T22:56:02.177Z,17.90
2017-07-23T22:58:30.208Z,17.70
2017-07-23T23:00:56.460Z,17.60
2017-07-23T23:03:22.724Z,17.60
2017-07-23T23:05:48.980Z,17.60
2017-07-23T23:08:15.248Z,17.60
2017-07-23T23:10:41.534Z,17.50
2017-07-23T23:13:07.796Z,17.60
2017-07-23T23:15:34.060Z,17.70
2017-07-23T23:18:00.346Z,17.60
2017-07-23T23:20:26.601Z,17.60
2017-07-23T23:22:52.932Z,17.60
2017-07-23T23:25:19.222Z,17.70
2017-07-23T23:27:45.480Z,17.60
2017-07-23T23:30:11.746Z,17.60
2017-07-23T23:32:38.046Z,17.60
2017-07-23T23:35:04.300Z,17.60
2017-07-23T23:37:30.560Z,17.60
2017-07-23T23:39:56.858Z,17.70
2017-07-23T23:42:23.109Z,17.70
2017-07-23T23:44:49.404Z,17.80
2017-07-23T23:47:16.392Z,17.70
2017-07-23T23:49:42.654Z,17.70
2017-07-23T23:52:08.947Z,17.70
2017-07-23T23:54:35.209Z,17.80
2017-07-23T23:57:01.467Z,17.80
2017-07-23T23:59:27.751Z,17.80
